sensor_id;sensor_type;location;lat;lon;timestamp;temperature;humidity
41058;DHT22;66768;48.884;2.258;2023-01-29T00:01:27;4.80;99.30
41058;DHT22;66768;48.884;2.258;2023-01-29T00:03:56;4.80;99.20
41058;DHT22;66768;48.884;2.258;2023-01-29T00:06:23;4.70;99.30
41058;DHT22;66768;48.884;2.258;2023-01-29T00:08:50;4.80;99.30
41058;DHT22;66768;48.884;2.258;2023-01-29T00:11:17;4.70;99.20
41058;DHT22;66768;48.884;2.258;2023-01-29T00:13:44;4.70;99.50
41058;DHT22;66768;48.884;2.258;2023-01-29T00:16:12;4.70;99.30
41058;DHT22;66768;48.884;2.258;2023-01-29T00:18:40;4.80;99.40
41058;DHT22;66768;48.884;2.258;2023-01-29T00:21:09;4.80;99.50
41058;DHT22;66768;48.884;2.258;2023-01-29T00:23:36;4.80;99.70
41058;DHT22;66768;48.884;2.258;2023-01-29T00:26:03;4.80;99.50
41058;DHT22;66768;48.884;2.258;2023-01-29T00:28:30;4.80;99.50
41058;DHT22;66768;48.884;2.258;2023-01-29T00:30:57;4.80;99.50
41058;DHT22;66768;48.884;2.258;2023-01-29T00:33:24;4.80;99.80
41058;DHT22;66768;48.884;2.258;2023-01-29T00:35:51;4.80;99.90
41058;DHT22;66768;48.884;2.258;2023-01-29T00:38:19;4.80;99.80
41058;DHT22;66768;48.884;2.258;2023-01-29T00:40:46;4.80;99.80
41058;DHT22;66768;48.884;2.258;2023-01-29T00:43:30;4.80;99.80
41058;DHT22;66768;48.884;2.258;2023-01-29T00:46:14;4.80;99.70
41058;DHT22;66768;48.884;2.258;2023-01-29T00:48:41;4.80;99.90
41058;DHT22;66768;48.884;2.258;2023-01-29T00:51:08;4.80;99.80
41058;DHT22;66768;48.884;2.258;2023-01-29T00:53:36;4.70;99.80
41058;DHT22;66768;48.884;2.258;2023-01-29T00:56:03;4.70;99.70
41058;DHT22;66768;48.884;2.258;2023-01-29T00:58:30;4.70;99.90
41058;DHT22;66768;48.884;2.258;2023-01-29T01:01:00;4.70;99.90
41058;DHT22;66768;48.884;2.258;2023-01-29T01:03:28;4.70;99.90
41058;DHT22;66768;48.884;2.258;2023-01-29T01:06:04;4.70;99.90
41058;DHT22;66768;48.884;2.258;2023-01-29T01:08:31;4.70;99.90
41058;DHT22;66768;48.884;2.258;2023-01-29T01:11:13;4.60;99.90
41058;DHT22;66768;48.884;2.258;2023-01-29T01:13:40;4.70;99.90
41058;DHT22;66768;48.884;2.258;2023-01-29T01:16:08;4.70;99.90
41058;DHT22;66768;48.884;2.258;2023-01-29T01:18:35;4.70;99.90
41058;DHT22;66768;48.884;2.258;2023-01-29T01:21:03;4.60;99.90
41058;DHT22;66768;48.884;2.258;2023-01-29T01:23:30;4.70;99.90
41058;DHT22;66768;48.884;2.258;2023-01-29T01:25:57;4.60;99.90
41058;DHT22;66768;48.884;2.258;2023-01-29T01:28:26;4.70;99.90
41058;DHT22;66768;48.884;2.258;2023-01-29T01:30:53;4.60;99.90
41058;DHT22;66768;48.884;2.258;2023-01-29T01:33:20;4.70;99.90
41058;DHT22;66768;48.884;2.258;2023-01-29T01:35:47;4.60;99.90
41058;DHT22;66768;48.884;2.258;2023-01-29T01:38:14;4.70;99.90
41058;DHT22;66768;48.884;2.258;2023-01-29T01:40:44;4.70;99.90
41058;DHT22;66768;48.884;2.258;2023-01-29T01:43:12;4.70;99.90
41058;DHT22;66768;48.884;2.258;2023-01-29T01:45:40;4.70;99.90
41058;DHT22;66768;48.884;2.258;2023-01-29T01:48:10;4.70;99.90
41058;DHT22;66768;48.884;2.258;2023-01-29T01:50:41;4.70;99.90
41058;DHT22;66768;48.884;2.258;2023-01-29T01:53:11;4.70;99.90
41058;DHT22;66768;48.884;2.258;2023-01-29T01:55:42;4.60;99.90
41058;DHT22;66768;48.884;2.258;2023-01-29T01:58:15;4.70;99.90
41058;DHT22;66768;48.884;2.258;2023-01-29T02:00:44;4.70;99.90
41058;DHT22;66768;48.884;2.258;2023-01-29T02:03:12;4.70;99.90
41058;DHT22;66768;48.884;2.258;2023-01-29T02:05:58;4.70;99.90
41058;DHT22;66768;48.884;2.258;2023-01-29T02:08:48;4.70;99.90
41058;DHT22;66768;48.884;2.258;2023-01-29T02:11:32;4.70;99.90
41058;DHT22;66768;48.884;2.258;2023-01-29T02:13:59;4.70;99.90
41058;DHT22;66768;48.884;2.258;2023-01-29T02:16:27;4.60;99.90
41058;DHT22;66768;48.884;2.258;2023-01-29T02:18:55;4.60;99.90
41058;DHT22;66768;48.884;2.258;2023-01-29T02:21:51;4.60;99.90
41058;DHT22;66768;48.884;2.258;2023-01-29T02:24:48;4.50;99.90
41058;DHT22;66768;48.884;2.258;2023-01-29T02:27:23;4.50;99.90
41058;DHT22;66768;48.884;2.258;2023-01-29T02:30:01;4.60;99.90
41058;DHT22;66768;48.884;2.258;2023-01-29T02:32:33;4.50;99.90
41058;DHT22;66768;48.884;2.258;2023-01-29T02:35:10;4.60;99.90
41058;DHT22;66768;48.884;2.258;2023-01-29T02:38:00;4.50;99.90
41058;DHT22;66768;48.884;2.258;2023-01-29T02:40:32;4.50;99.90
41058;DHT22;66768;48.884;2.258;2023-01-29T02:43:06;4.40;99.90
41058;DHT22;66768;48.884;2.258;2023-01-29T02:45:43;4.50;99.90
41058;DHT22;66768;48.884;2.258;2023-01-29T02:48:16;4.40;99.90
41058;DHT22;66768;48.884;2.258;2023-01-29T02:50:47;4.40;99.90
41058;DHT22;66768;48.884;2.258;2023-01-29T02:53:19;4.40;99.90
41058;DHT22;66768;48.884;2.258;2023-01-29T02:55:52;4.50;99.90
41058;DHT22;66768;48.884;2.258;2023-01-29T02:58:26;4.40;99.90
41058;DHT22;66768;48.884;2.258;2023-01-29T03:00:59;4.40;99.90
41058;DHT22;66768;48.884;2.258;2023-01-29T03:03:31;4.40;99.90
41058;DHT22;66768;48.884;2.258;2023-01-29T03:06:02;4.30;99.90
41058;DHT22;66768;48.884;2.258;2023-01-29T03:08:32;4.30;99.90
41058;DHT22;66768;48.884;2.258;2023-01-29T03:11:08;4.40;99.90
41058;DHT22;66768;48.884;2.258;2023-01-29T03:13:41;4.30;99.90
41058;DHT22;66768;48.884;2.258;2023-01-29T03:16:16;4.30;99.90
41058;DHT22;66768;48.884;2.258;2023-01-29T03:18:48;4.30;99.90
41058;DHT22;66768;48.884;2.258;2023-01-29T03:21:20;4.30;99.90
41058;DHT22;66768;48.884;2.258;2023-01-29T03:24:07;4.30;99.90
41058;DHT22;66768;48.884;2.258;2023-01-29T03:26:53;4.20;99.90
41058;DHT22;66768;48.884;2.258;2023-01-29T03:29:39;4.20;99.90
41058;DHT22;66768;48.884;2.258;2023-01-29T03:32:27;4.20;99.90
41058;DHT22;66768;48.884;2.258;2023-01-29T03:34:57;4.30;99.90
41058;DHT22;66768;48.884;2.258;2023-01-29T03:37:29;4.20;99.90
41058;DHT22;66768;48.884;2.258;2023-01-29T03:39:59;4.30;99.90
41058;DHT22;66768;48.884;2.258;2023-01-29T03:42:28;4.30;99.90
41058;DHT22;66768;48.884;2.258;2023-01-29T03:45:04;4.30;99.90
41058;DHT22;66768;48.884;2.258;2023-01-29T03:47:41;4.30;99.90
41058;DHT22;66768;48.884;2.258;2023-01-29T03:50:19;4.30;99.90
41058;DHT22;66768;48.884;2.258;2023-01-29T03:52:55;4.30;99.90
41058;DHT22;66768;48.884;2.258;2023-01-29T03:55:31;4.20;99.90
41058;DHT22;66768;48.884;2.258;2023-01-29T03:58:04;4.30;99.90
41058;DHT22;66768;48.884;2.258;2023-01-29T04:00:37;4.30;99.90
41058;DHT22;66768;48.884;2.258;2023-01-29T04:03:12;4.30;99.90
41058;DHT22;66768;48.884;2.258;2023-01-29T04:05:45;4.20;99.90
41058;DHT22;66768;48.884;2.258;2023-01-29T04:08:16;4.00;99.90
41058;DHT22;66768;48.884;2.258;2023-01-29T04:10:45;4.10;99.90
41058;DHT22;66768;48.884;2.258;2023-01-29T04:13:15;4.10;99.90
41058;DHT22;66768;48.884;2.258;2023-01-29T04:15:46;4.10;99.90
41058;DHT22;66768;48.884;2.258;2023-01-29T04:18:15;4.20;99.90
41058;DHT22;66768;48.884;2.258;2023-01-29T04:20:42;4.10;99.90
41058;DHT22;66768;48.884;2.258;2023-01-29T04:23:19;4.00;99.90
41058;DHT22;66768;48.884;2.258;2023-01-29T04:26:06;4.10;99.90
41058;DHT22;66768;48.884;2.258;2023-01-29T04:28:50;4.10;99.90
41058;DHT22;66768;48.884;2.258;2023-01-29T04:31:22;4.10;99.90
41058;DHT22;66768;48.884;2.258;2023-01-29T04:34:03;4.00;99.90
41058;DHT22;66768;48.884;2.258;2023-01-29T04:36:40;4.10;99.90
41058;DHT22;66768;48.884;2.258;2023-01-29T04:39:14;4.10;99.90
41058;DHT22;66768;48.884;2.258;2023-01-29T04:41:48;4.10;99.90
41058;DHT22;66768;48.884;2.258;2023-01-29T04:44:20;4.10;99.90
41058;DHT22;66768;48.884;2.258;2023-01-29T04:46:55;4.10;99.90
41058;DHT22;66768;48.884;2.258;2023-01-29T04:49:31;4.10;99.90
41058;DHT22;66768;48.884;2.258;2023-01-29T04:52:07;4.00;99.90
41058;DHT22;66768;48.884;2.258;2023-01-29T04:54:46;4.00;99.90
41058;DHT22;66768;48.884;2.258;2023-01-29T04:57:19;4.00;99.90
41058;DHT22;66768;48.884;2.258;2023-01-29T04:59:53;4.00;99.90
41058;DHT22;66768;48.884;2.258;2023-01-29T05:02:23;3.90;99.90
41058;DHT22;66768;48.884;2.258;2023-01-29T05:04:53;3.90;99.90
41058;DHT22;66768;48.884;2.258;2023-01-29T05:07:21;3.90;99.90
41058;DHT22;66768;48.884;2.258;2023-01-29T05:09:50;3.90;99.90
41058;DHT22;66768;48.884;2.258;2023-01-29T05:12:17;3.90;99.90
41058;DHT22;66768;48.884;2.258;2023-01-29T05:14:45;3.80;99.90
41058;DHT22;66768;48.884;2.258;2023-01-29T05:17:15;3.80;99.90
41058;DHT22;66768;48.884;2.258;2023-01-29T05:19:44;3.80;99.90
41058;DHT22;66768;48.884;2.258;2023-01-29T05:22:15;3.80;99.90
41058;DHT22;66768;48.884;2.258;2023-01-29T05:24:43;3.80;99.90
41058;DHT22;66768;48.884;2.258;2023-01-29T05:27:16;3.70;99.90
41058;DHT22;66768;48.884;2.258;2023-01-29T05:30:01;3.80;99.90
41058;DHT22;66768;48.884;2.258;2023-01-29T05:32:28;3.80;99.90
41058;DHT22;66768;48.884;2.258;2023-01-29T05:34:55;3.80;99.90
41058;DHT22;66768;48.884;2.258;2023-01-29T05:37:24;3.90;99.90
41058;DHT22;66768;48.884;2.258;2023-01-29T05:39:50;3.90;99.90
41058;DHT22;66768;48.884;2.258;2023-01-29T05:42:17;3.90;99.90
41058;DHT22;66768;48.884;2.258;2023-01-29T05:44:44;3.90;99.90
41058;DHT22;66768;48.884;2.258;2023-01-29T05:47:11;3.90;99.90
41058;DHT22;66768;48.884;2.258;2023-01-29T05:49:38;3.90;99.90
41058;DHT22;66768;48.884;2.258;2023-01-29T05:52:05;3.90;99.90
41058;DHT22;66768;48.884;2.258;2023-01-29T05:54:33;3.90;99.90
41058;DHT22;66768;48.884;2.258;2023-01-29T05:57:00;4.00;99.90
41058;DHT22;66768;48.884;2.258;2023-01-29T05:59:27;4.00;99.90
41058;DHT22;66768;48.884;2.258;2023-01-29T06:01:55;4.00;99.90
41058;DHT22;66768;48.884;2.258;2023-01-29T06:04:22;4.00;99.90
41058;DHT22;66768;48.884;2.258;2023-01-29T06:06:49;4.00;99.90
41058;DHT22;66768;48.884;2.258;2023-01-29T06:09:16;4.00;99.90
41058;DHT22;66768;48.884;2.258;2023-01-29T06:11:44;4.00;99.90
41058;DHT22;66768;48.884;2.258;2023-01-29T06:14:11;4.00;99.90
41058;DHT22;66768;48.884;2.258;2023-01-29T06:16:38;3.90;99.90
41058;DHT22;66768;48.884;2.258;2023-01-29T06:19:05;3.90;99.90
41058;DHT22;66768;48.884;2.258;2023-01-29T06:21:32;3.90;99.90
41058;DHT22;66768;48.884;2.258;2023-01-29T06:23:58;3.90;99.90
41058;DHT22;66768;48.884;2.258;2023-01-29T06:26:25;3.90;99.90
41058;DHT22;66768;48.884;2.258;2023-01-29T06:28:53;3.90;99.90
41058;DHT22;66768;48.884;2.258;2023-01-29T06:31:20;3.90;99.90
41058;DHT22;66768;48.884;2.258;2023-01-29T06:33:47;3.90;99.90
41058;DHT22;66768;48.884;2.258;2023-01-29T06:36:14;3.90;99.90
41058;DHT22;66768;48.884;2.258;2023-01-29T06:38:41;3.90;99.90
41058;DHT22;66768;48.884;2.258;2023-01-29T06:41:08;3.80;99.90
41058;DHT22;66768;48.884;2.258;2023-01-29T06:43:36;3.90;99.90
41058;DHT22;66768;48.884;2.258;2023-01-29T06:46:06;3.90;99.90
41058;DHT22;66768;48.884;2.258;2023-01-29T06:48:33;3.90;99.90
41058;DHT22;66768;48.884;2.258;2023-01-29T06:51:01;3.80;99.90
41058;DHT22;66768;48.884;2.258;2023-01-29T06:53:28;3.80;99.90
41058;DHT22;66768;48.884;2.258;2023-01-29T06:55:55;3.70;99.90
41058;DHT22;66768;48.884;2.258;2023-01-29T06:58:22;3.80;99.90
41058;DHT22;66768;48.884;2.258;2023-01-29T07:00:49;3.70;99.90
41058;DHT22;66768;48.884;2.258;2023-01-29T07:03:17;3.60;99.90
41058;DHT22;66768;48.884;2.258;2023-01-29T07:05:49;3.60;99.90
41058;DHT22;66768;48.884;2.258;2023-01-29T07:08:17;3.70;99.90
41058;DHT22;66768;48.884;2.258;2023-01-29T07:10:47;3.70;99.90
41058;DHT22;66768;48.884;2.258;2023-01-29T07:13:14;3.70;99.90
41058;DHT22;66768;48.884;2.258;2023-01-29T07:15:40;3.70;99.90
41058;DHT22;66768;48.884;2.258;2023-01-29T07:18:08;3.70;99.90
41058;DHT22;66768;48.884;2.258;2023-01-29T07:20:40;3.70;99.90
41058;DHT22;66768;48.884;2.258;2023-01-29T07:23:10;3.70;99.90
41058;DHT22;66768;48.884;2.258;2023-01-29T07:25:37;3.70;99.90
41058;DHT22;66768;48.884;2.258;2023-01-29T07:28:04;3.60;99.90
41058;DHT22;66768;48.884;2.258;2023-01-29T07:30:31;3.60;99.90
41058;DHT22;66768;48.884;2.258;2023-01-29T07:33:00;3.60;99.90
41058;DHT22;66768;48.884;2.258;2023-01-29T07:35:28;3.60;99.90
41058;DHT22;66768;48.884;2.258;2023-01-29T07:37:56;3.60;99.90
41058;DHT22;66768;48.884;2.258;2023-01-29T07:40:23;3.60;99.90
41058;DHT22;66768;48.884;2.258;2023-01-29T07:42:50;3.50;99.90
41058;DHT22;66768;48.884;2.258;2023-01-29T07:45:16;3.50;99.90
41058;DHT22;66768;48.884;2.258;2023-01-29T07:47:43;3.60;99.90
41058;DHT22;66768;48.884;2.258;2023-01-29T07:50:10;3.60;99.90
41058;DHT22;66768;48.884;2.258;2023-01-29T07:52:37;3.60;99.90
41058;DHT22;66768;48.884;2.258;2023-01-29T07:55:06;3.60;99.90
41058;DHT22;66768;48.884;2.258;2023-01-29T07:57:33;3.60;99.90
41058;DHT22;66768;48.884;2.258;2023-01-29T08:00:00;3.60;99.90
41058;DHT22;66768;48.884;2.258;2023-01-29T08:02:26;3.60;99.90
41058;DHT22;66768;48.884;2.258;2023-01-29T08:04:53;3.60;99.90
41058;DHT22;66768;48.884;2.258;2023-01-29T08:07:20;3.60;99.90
41058;DHT22;66768;48.884;2.258;2023-01-29T08:09:47;3.60;99.90
41058;DHT22;66768;48.884;2.258;2023-01-29T08:12:15;3.60;99.90
41058;DHT22;66768;48.884;2.258;2023-01-29T08:14:42;3.70;99.90
41058;DHT22;66768;48.884;2.258;2023-01-29T08:17:10;3.70;99.90
41058;DHT22;66768;48.884;2.258;2023-01-29T08:19:37;3.80;99.90
41058;DHT22;66768;48.884;2.258;2023-01-29T08:22:04;3.80;99.90
41058;DHT22;66768;48.884;2.258;2023-01-29T08:24:31;3.70;99.90
41058;DHT22;66768;48.884;2.258;2023-01-29T08:26:58;3.80;99.90
41058;DHT22;66768;48.884;2.258;2023-01-29T08:29:26;3.80;99.90
41058;DHT22;66768;48.884;2.258;2023-01-29T08:31:53;3.80;99.90
41058;DHT22;66768;48.884;2.258;2023-01-29T08:34:20;3.80;99.90
41058;DHT22;66768;48.884;2.258;2023-01-29T08:36:47;3.90;99.90
41058;DHT22;66768;48.884;2.258;2023-01-29T08:39:14;3.90;99.90
41058;DHT22;66768;48.884;2.258;2023-01-29T08:41:40;4.00;99.90
41058;DHT22;66768;48.884;2.258;2023-01-29T08:44:07;4.00;99.90
41058;DHT22;66768;48.884;2.258;2023-01-29T08:46:36;4.10;99.90
41058;DHT22;66768;48.884;2.258;2023-01-29T08:49:05;4.10;99.90
41058;DHT22;66768;48.884;2.258;2023-01-29T08:51:32;4.20;99.90
41058;DHT22;66768;48.884;2.258;2023-01-29T08:53:59;4.20;99.90
41058;DHT22;66768;48.884;2.258;2023-01-29T08:56:25;4.20;99.90
41058;DHT22;66768;48.884;2.258;2023-01-29T08:58:52;4.10;99.90
41058;DHT22;66768;48.884;2.258;2023-01-29T09:01:19;4.20;99.90
41058;DHT22;66768;48.884;2.258;2023-01-29T09:03:47;4.20;99.90
41058;DHT22;66768;48.884;2.258;2023-01-29T09:06:14;4.10;99.90
41058;DHT22;66768;48.884;2.258;2023-01-29T09:08:41;4.20;99.90
41058;DHT22;66768;48.884;2.258;2023-01-29T09:11:08;4.10;99.90
41058;DHT22;66768;48.884;2.258;2023-01-29T09:13:35;4.20;99.90
41058;DHT22;66768;48.884;2.258;2023-01-29T09:16:03;4.30;99.90
41058;DHT22;66768;48.884;2.258;2023-01-29T09:18:30;4.40;99.90
41058;DHT22;66768;48.884;2.258;2023-01-29T09:20:58;4.50;99.90
41058;DHT22;66768;48.884;2.258;2023-01-29T09:23:27;4.50;99.90
41058;DHT22;66768;48.884;2.258;2023-01-29T09:25:54;4.60;99.90
41058;DHT22;66768;48.884;2.258;2023-01-29T09:28:21;4.70;99.90
41058;DHT22;66768;48.884;2.258;2023-01-29T09:30:48;4.70;99.90
41058;DHT22;66768;48.884;2.258;2023-01-29T09:33:15;4.70;99.90
41058;DHT22;66768;48.884;2.258;2023-01-29T09:35:43;4.80;99.90
41058;DHT22;66768;48.884;2.258;2023-01-29T09:38:13;4.80;99.90
41058;DHT22;66768;48.884;2.258;2023-01-29T09:40:45;4.80;99.90
41058;DHT22;66768;48.884;2.258;2023-01-29T09:43:17;4.80;99.90
41058;DHT22;66768;48.884;2.258;2023-01-29T09:45:51;4.90;99.90
41058;DHT22;66768;48.884;2.258;2023-01-29T09:48:21;4.80;99.90
41058;DHT22;66768;48.884;2.258;2023-01-29T09:50:50;4.90;99.90
41058;DHT22;66768;48.884;2.258;2023-01-29T09:53:26;4.90;99.90
41058;DHT22;66768;48.884;2.258;2023-01-29T09:55:58;4.90;99.90
41058;DHT22;66768;48.884;2.258;2023-01-29T09:58:29;5.00;99.90
41058;DHT22;66768;48.884;2.258;2023-01-29T10:01:04;4.90;99.90
41058;DHT22;66768;48.884;2.258;2023-01-29T10:03:58;5.00;99.90
41058;DHT22;66768;48.884;2.258;2023-01-29T10:06:43;5.00;99.90
41058;DHT22;66768;48.884;2.258;2023-01-29T10:09:41;5.20;99.90
41058;DHT22;66768;48.884;2.258;2023-01-29T10:15:34;5.30;99.90
41058;DHT22;66768;48.884;2.258;2023-01-29T10:18:28;5.40;99.90
41058;DHT22;66768;48.884;2.258;2023-01-29T10:21:06;5.40;99.90
41058;DHT22;66768;48.884;2.258;2023-01-29T10:23:36;5.40;99.90
41058;DHT22;66768;48.884;2.258;2023-01-29T10:26:07;5.40;99.90
41058;DHT22;66768;48.884;2.258;2023-01-29T10:28:41;5.50;99.90
41058;DHT22;66768;48.884;2.258;2023-01-29T10:31:12;5.50;99.90
41058;DHT22;66768;48.884;2.258;2023-01-29T10:33:44;5.50;99.90
41058;DHT22;66768;48.884;2.258;2023-01-29T10:36:14;5.50;99.90
41058;DHT22;66768;48.884;2.258;2023-01-29T10:38:44;5.60;99.90
41058;DHT22;66768;48.884;2.258;2023-01-29T10:41:28;5.50;99.90
41058;DHT22;66768;48.884;2.258;2023-01-29T10:44:09;5.50;99.90
41058;DHT22;66768;48.884;2.258;2023-01-29T10:46:51;5.50;99.90
41058;DHT22;66768;48.884;2.258;2023-01-29T10:49:41;5.50;99.90
41058;DHT22;66768;48.884;2.258;2023-01-29T10:52:27;5.50;99.90
41058;DHT22;66768;48.884;2.258;2023-01-29T10:55:02;5.50;99.90
41058;DHT22;66768;48.884;2.258;2023-01-29T10:57:47;5.60;99.90
41058;DHT22;66768;48.884;2.258;2023-01-29T11:00:20;5.70;99.90
41058;DHT22;66768;48.884;2.258;2023-01-29T11:02:49;5.70;99.90
41058;DHT22;66768;48.884;2.258;2023-01-29T11:05:22;5.70;99.90
41058;DHT22;66768;48.884;2.258;2023-01-29T11:08:00;5.80;99.90
41058;DHT22;66768;48.884;2.258;2023-01-29T11:10:31;5.80;99.90
41058;DHT22;66768;48.884;2.258;2023-01-29T11:13:00;5.80;99.90
41058;DHT22;66768;48.884;2.258;2023-01-29T11:15:30;5.80;99.90
41058;DHT22;66768;48.884;2.258;2023-01-29T11:18:03;5.90;99.90
41058;DHT22;66768;48.884;2.258;2023-01-29T11:20:31;5.90;99.90
41058;DHT22;66768;48.884;2.258;2023-01-29T11:22:58;5.80;99.90
41058;DHT22;66768;48.884;2.258;2023-01-29T11:25:25;5.90;99.90
41058;DHT22;66768;48.884;2.258;2023-01-29T11:27:55;5.80;99.90
41058;DHT22;66768;48.884;2.258;2023-01-29T11:30:25;5.90;99.90
41058;DHT22;66768;48.884;2.258;2023-01-29T11:33:02;5.90;99.90
41058;DHT22;66768;48.884;2.258;2023-01-29T11:35:31;5.90;99.90
41058;DHT22;66768;48.884;2.258;2023-01-29T11:38:07;6.00;99.90
41058;DHT22;66768;48.884;2.258;2023-01-29T11:40:37;6.00;99.90
41058;DHT22;66768;48.884;2.258;2023-01-29T11:43:19;6.10;99.90
41058;DHT22;66768;48.884;2.258;2023-01-29T11:45:49;6.20;99.90
41058;DHT22;66768;48.884;2.258;2023-01-29T11:48:18;6.20;99.90
41058;DHT22;66768;48.884;2.258;2023-01-29T11:50:51;6.20;99.80
41058;DHT22;66768;48.884;2.258;2023-01-29T11:53:26;6.30;99.90
41058;DHT22;66768;48.884;2.258;2023-01-29T11:55:56;6.20;99.90
41058;DHT22;66768;48.884;2.258;2023-01-29T11:58:26;6.30;99.90
41058;DHT22;66768;48.884;2.258;2023-01-29T12:00:56;6.30;99.90
41058;DHT22;66768;48.884;2.258;2023-01-29T12:03:32;6.30;99.90
41058;DHT22;66768;48.884;2.258;2023-01-29T12:06:02;6.40;99.80
41058;DHT22;66768;48.884;2.258;2023-01-29T12:08:34;6.40;99.50
41058;DHT22;66768;48.884;2.258;2023-01-29T12:11:10;6.40;99.50
41058;DHT22;66768;48.884;2.258;2023-01-29T12:13:40;6.30;99.30
41058;DHT22;66768;48.884;2.258;2023-01-29T12:16:18;6.20;99.10
41058;DHT22;66768;48.884;2.258;2023-01-29T12:18:51;6.20;99.20
41058;DHT22;66768;48.884;2.258;2023-01-29T12:21:22;6.30;99.20
41058;DHT22;66768;48.884;2.258;2023-01-29T12:23:58;6.40;99.40
41058;DHT22;66768;48.884;2.258;2023-01-29T12:26:30;6.40;98.90
41058;DHT22;66768;48.884;2.258;2023-01-29T12:29:12;6.40;98.80
41058;DHT22;66768;48.884;2.258;2023-01-29T12:31:47;6.40;98.70
41058;DHT22;66768;48.884;2.258;2023-01-29T12:34:18;6.40;98.50
41058;DHT22;66768;48.884;2.258;2023-01-29T12:36:51;6.40;98.30
41058;DHT22;66768;48.884;2.258;2023-01-29T12:39:21;6.60;99.10
41058;DHT22;66768;48.884;2.258;2023-01-29T12:41:52;6.60;99.40
41058;DHT22;66768;48.884;2.258;2023-01-29T12:44:24;6.70;99.10
41058;DHT22;66768;48.884;2.258;2023-01-29T12:46:55;6.60;97.70
41058;DHT22;66768;48.884;2.258;2023-01-29T12:49:25;6.60;98.00
41058;DHT22;66768;48.884;2.258;2023-01-29T12:51:57;6.50;97.90
41058;DHT22;66768;48.884;2.258;2023-01-29T12:54:34;6.50;97.90
41058;DHT22;66768;48.884;2.258;2023-01-29T12:57:06;6.60;98.20
41058;DHT22;66768;48.884;2.258;2023-01-29T12:59:39;6.70;98.10
41058;DHT22;66768;48.884;2.258;2023-01-29T13:02:20;6.80;98.90
41058;DHT22;66768;48.884;2.258;2023-01-29T13:04:54;6.80;98.10
41058;DHT22;66768;48.884;2.258;2023-01-29T13:07:25;6.90;98.70
41058;DHT22;66768;48.884;2.258;2023-01-29T13:09:58;6.80;97.70
41058;DHT22;66768;48.884;2.258;2023-01-29T13:12:30;6.70;97.70
41058;DHT22;66768;48.884;2.258;2023-01-29T13:15:01;6.80;98.30
41058;DHT22;66768;48.884;2.258;2023-01-29T13:17:35;6.80;98.10
41058;DHT22;66768;48.884;2.258;2023-01-29T13:20:09;6.90;98.40
41058;DHT22;66768;48.884;2.258;2023-01-29T13:22:39;6.90;98.10
41058;DHT22;66768;48.884;2.258;2023-01-29T13:25:13;7.00;98.40
41058;DHT22;66768;48.884;2.258;2023-01-29T13:27:42;7.00;98.40
41058;DHT22;66768;48.884;2.258;2023-01-29T13:30:23;7.00;98.10
41058;DHT22;66768;48.884;2.258;2023-01-29T13:32:52;7.00;98.00
41058;DHT22;66768;48.884;2.258;2023-01-29T13:35:21;7.10;98.40
41058;DHT22;66768;48.884;2.258;2023-01-29T13:37:51;7.10;98.10
41058;DHT22;66768;48.884;2.258;2023-01-29T13:40:22;7.10;97.90
41058;DHT22;66768;48.884;2.258;2023-01-29T13:42:50;7.10;98.10
41058;DHT22;66768;48.884;2.258;2023-01-29T13:45:20;7.20;98.00
41058;DHT22;66768;48.884;2.258;2023-01-29T13:47:47;7.20;97.40
41058;DHT22;66768;48.884;2.258;2023-01-29T13:50:22;7.10;97.20
41058;DHT22;66768;48.884;2.258;2023-01-29T13:52:55;7.10;97.50
41058;DHT22;66768;48.884;2.258;2023-01-29T13:55:26;7.10;97.30
41058;DHT22;66768;48.884;2.258;2023-01-29T13:57:56;7.20;97.20
41058;DHT22;66768;48.884;2.258;2023-01-29T14:00:56;7.10;97.20
41058;DHT22;66768;48.884;2.258;2023-01-29T14:03:53;7.10;97.30
41058;DHT22;66768;48.884;2.258;2023-01-29T14:06:49;7.10;97.30
41058;DHT22;66768;48.884;2.258;2023-01-29T14:12:41;7.00;97.30
41058;DHT22;66768;48.884;2.258;2023-01-29T14:15:22;7.00;97.20
41058;DHT22;66768;48.884;2.258;2023-01-29T14:17:58;7.00;97.50
41058;DHT22;66768;48.884;2.258;2023-01-29T14:20:31;7.00;97.70
41058;DHT22;66768;48.884;2.258;2023-01-29T14:23:00;7.10;98.50
41058;DHT22;66768;48.884;2.258;2023-01-29T14:25:30;7.20;98.80
41058;DHT22;66768;48.884;2.258;2023-01-29T14:27:58;7.20;98.80
41058;DHT22;66768;48.884;2.258;2023-01-29T14:30:28;7.30;98.80
41058;DHT22;66768;48.884;2.258;2023-01-29T14:32:55;7.30;98.80
41058;DHT22;66768;48.884;2.258;2023-01-29T14:35:25;7.30;99.00
41058;DHT22;66768;48.884;2.258;2023-01-29T14:37:55;7.30;99.10
41058;DHT22;66768;48.884;2.258;2023-01-29T14:40:27;7.40;98.90
41058;DHT22;66768;48.884;2.258;2023-01-29T14:42:58;7.30;98.10
41058;DHT22;66768;48.884;2.258;2023-01-29T14:45:28;7.30;98.60
41058;DHT22;66768;48.884;2.258;2023-01-29T14:48:18;7.30;98.30
41058;DHT22;66768;48.884;2.258;2023-01-29T14:50:50;7.20;98.00
41058;DHT22;66768;48.884;2.258;2023-01-29T14:53:26;7.30;98.10
41058;DHT22;66768;48.884;2.258;2023-01-29T14:55:58;7.30;97.70
41058;DHT22;66768;48.884;2.258;2023-01-29T14:58:32;7.30;97.80
41058;DHT22;66768;48.884;2.258;2023-01-29T15:01:01;7.30;97.80
41058;DHT22;66768;48.884;2.258;2023-01-29T15:03:36;7.20;98.10
41058;DHT22;66768;48.884;2.258;2023-01-29T15:06:05;7.30;97.90
41058;DHT22;66768;48.884;2.258;2023-01-29T15:08:37;7.30;97.70
41058;DHT22;66768;48.884;2.258;2023-01-29T15:11:13;7.30;97.70
41058;DHT22;66768;48.884;2.258;2023-01-29T15:14:07;7.30;97.70
41058;DHT22;66768;48.884;2.258;2023-01-29T15:16:43;7.30;97.70
41058;DHT22;66768;48.884;2.258;2023-01-29T15:19:15;7.30;97.60
41058;DHT22;66768;48.884;2.258;2023-01-29T15:22:12;7.30;97.70
41058;DHT22;66768;48.884;2.258;2023-01-29T15:24:41;7.30;97.80
41058;DHT22;66768;48.884;2.258;2023-01-29T15:27:13;7.30;97.70
41058;DHT22;66768;48.884;2.258;2023-01-29T15:29:43;7.30;97.80
41058;DHT22;66768;48.884;2.258;2023-01-29T15:32:15;7.30;97.80
41058;DHT22;66768;48.884;2.258;2023-01-29T15:34:45;7.30;97.80
41058;DHT22;66768;48.884;2.258;2023-01-29T15:37:29;7.30;97.90
41058;DHT22;66768;48.884;2.258;2023-01-29T15:39:57;7.20;97.80
41058;DHT22;66768;48.884;2.258;2023-01-29T15:42:27;7.20;97.90
41058;DHT22;66768;48.884;2.258;2023-01-29T15:44:54;7.20;97.80
41058;DHT22;66768;48.884;2.258;2023-01-29T15:47:24;7.20;97.80
41058;DHT22;66768;48.884;2.258;2023-01-29T15:49:54;7.20;97.90
41058;DHT22;66768;48.884;2.258;2023-01-29T15:52:24;7.20;98.10
41058;DHT22;66768;48.884;2.258;2023-01-29T15:54:53;7.20;98.10
41058;DHT22;66768;48.884;2.258;2023-01-29T15:57:23;7.20;98.50
41058;DHT22;66768;48.884;2.258;2023-01-29T15:59:55;7.10;98.00
41058;DHT22;66768;48.884;2.258;2023-01-29T16:02:38;7.10;98.00
41058;DHT22;66768;48.884;2.258;2023-01-29T16:05:10;7.10;97.90
41058;DHT22;66768;48.884;2.258;2023-01-29T16:07:38;7.10;98.00
41058;DHT22;66768;48.884;2.258;2023-01-29T16:10:10;7.10;98.20
41058;DHT22;66768;48.884;2.258;2023-01-29T16:12:40;7.10;98.30
41058;DHT22;66768;48.884;2.258;2023-01-29T16:15:27;7.10;98.30
41058;DHT22;66768;48.884;2.258;2023-01-29T16:17:56;7.10;98.30
41058;DHT22;66768;48.884;2.258;2023-01-29T16:20:34;7.10;98.30